• Join FlightAware (Why Join?)
  • Login
  • US Flag 
11:13PM EST


 

Airport Tracker/Info


-or-


 

Live Flight TrackerFlight Track Log ✈ CSJ405 ✈ 02-May-2013 ✈ KCDW - KROC

Flight Track Log - Related Links

Times and Time Zones

All times are in EDT time to prevent confusion due to time zone crossing. See the CSJ405 flight status page for this flight to view local times or setup timezone preferences in your user account.

Time Position Orientation Groundspeed Altitude Reporting Facility
EDT Latitude Longitude Course Direction KTS MPH feet Rate Location/Type
07:59PM 40.8500 -74.2833 346° North 94 108 1,700  Level New York TRACON
08:00PM 40.8333 -74.2833 180° South 73 84 3,100 1,260 Climbing New York TRACON
08:01PM 40.8167 -74.3000 217° Southwest 83 96 4,300 1,140 Climbing New York TRACON
08:02PM 40.8167 -74.3333 270° West 97 112 5,500 1,080 Climbing New York TRACON
08:03PM 40.8333 -74.3500 323° Northwest 90 104 6,500 1,140 Climbing New York TRACON
08:04PM 40.8500 -74.3667 323° Northwest 87 100 7,800 1,200 Climbing New York TRACON
08:05PM 41.1068 -74.3745 346° North  Level FlightAware Approximate
08:05PM 40.8667 -74.3833 323° Northwest 82 94 8,900  Level New York TRACON
08:06PM 40.9000 -74.4000 339° North 128 147 9,100 60 Climbing New York TRACON
08:07PM 40.9500 -74.4167 346° North 163 188 9,100  Level New York TRACON
08:08PM 40.9833 -74.4333 339° North 169 194 9,100  Level New York TRACON
08:09PM 41.0333 -74.4500 346° North 165 190 9,100  Level New York TRACON
08:10PM 41.0833 -74.4667 346° North 161 185 9,100  Level New York TRACON
08:11PM 41.1333 -74.4833 346° North 159 183 9,100  Level New York TRACON
08:12PM 41.1667 -74.5000 339° North 162 186 9,100  Level New York TRACON
08:13PM 41.2167 -74.5167 346° North 161 185 9,100 -120 Level New York TRACON
08:15PM 41.2699 -74.4901 21° North  Level FlightAware Approximate
08:22PM 41.4934 -74.7603 305° West  Level FlightAware Approximate
08:23PM 41.5185 -74.8081 305° West  Level FlightAware Approximate
08:24PM 41.5436 -74.8560 305° West  Level FlightAware Approximate
08:25PM 41.5685 -74.9040 301° West  Level FlightAware Approximate
08:26PM 41.5975 -74.9530 308° West  Level FlightAware Approximate
08:27PM 41.6265 -75.0020 308° West  Level FlightAware Approximate
08:28PM 41.6555 -75.0510 308° West  Level FlightAware Approximate
08:29PM 41.6844 -75.1002 308° West  Level FlightAware Approximate
08:30PM 41.7133 -75.1493 308° West  Level FlightAware Approximate
08:31PM 41.7422 -75.1985 308° West  Level FlightAware Approximate
08:32PM 41.7710 -75.2478 308° West  Level FlightAware Approximate
08:33PM 41.7998 -75.2972 308° West  Level FlightAware Approximate
08:34PM 41.8285 -75.3466 308° West  Level FlightAware Approximate
08:35PM 41.8572 -75.3961 308° West  Level FlightAware Approximate
08:36PM 41.8859 -75.4456 308° West  Level FlightAware Approximate
08:37PM 41.9146 -75.4951 308° West  Level FlightAware Approximate
08:38PM 41.9433 -75.5447 308° West  Level FlightAware Approximate
08:39PM 41.9719 -75.5944 308° West  Level FlightAware Approximate
08:40PM 42.0005 -75.6440 308° West  Level FlightAware Approximate
08:41PM 42.0291 -75.6938 308° West  Level FlightAware Approximate
08:42PM 42.0577 -75.7435 308° West  Level FlightAware Approximate
08:43PM 42.0863 -75.7934 308° West  Level FlightAware Approximate
08:44PM 42.1148 -75.8433 308° West  Level FlightAware Approximate
08:45PM 42.1434 -75.8933 308° West  Level FlightAware Approximate
08:46PM 42.1719 -75.9433 308° West  Level FlightAware Approximate
08:47PM 42.2004 -75.9933 308° West  Level FlightAware Approximate
08:48PM 42.2288 -76.0434 308° West  Level FlightAware Approximate
08:49PM 42.2573 -76.0935 307° West  Level FlightAware Approximate
08:50PM 42.2857 -76.1437 307° West  Level FlightAware Approximate
08:51PM 42.3141 -76.1939 307° West  Level FlightAware Approximate
08:52PM 42.3425 -76.2442 307° West  Level FlightAware Approximate
08:53PM 42.3708 -76.2945 307° West  Level FlightAware Approximate
08:54PM 42.3988 -76.3453 306° West  Level FlightAware Approximate
08:55PM 42.4263 -76.3964 306° West  Level FlightAware Approximate
08:56PM 42.4539 -76.4476 306° West  Level FlightAware Approximate
08:57PM 42.4814 -76.4989 306° West  Level FlightAware Approximate
08:58PM 42.5089 -76.5502 306° West  Level FlightAware Approximate
08:58PM 42.5792 -76.6661 307° West 176 203 6,000  Level Cleveland Center
08:59PM 42.5364 -76.6015 306° West  Level FlightAware Approximate
08:59PM 42.6036 -76.7097 307° West 177 204 6,000  Level Cleveland Center
09:00PM 42.5639 -76.6529 306° West  Level FlightAware Approximate
09:00PM 42.6306 -76.7647 304° West 179 206 6,000  Level Cleveland Center
09:01PM 42.5913 -76.7043 306° West  Level FlightAware Approximate
09:01PM 42.6614 -76.8192 308° West 178 205 6,000  Level Cleveland Center
09:02PM 42.6187 -76.7558 306° West  Level FlightAware Approximate
09:02PM 42.6925 -76.8794 305° West 180 207 6,000  Level Cleveland Center
09:03PM 42.6465 -76.8070 307° West  Level FlightAware Approximate
09:03PM 42.7214 -76.9317 307° West 180 207 6,000  Level Cleveland Center
09:04PM 42.7500 -76.9836 307° West 181 208 6,000  Level Cleveland Center
09:05PM 42.7811 -77.0414 306° West 180 207 6,000 -180 Level Cleveland Center
09:06PM 42.8142 -77.1044 306° West 185 213 5,700 -300 Descending Cleveland Center
09:07PM 42.8494 -77.1647 309° West 188 216 5,400 -360 Descending Cleveland Center
09:08PM 42.8803 -77.2256 305° West 190 219 5,000 -420 Descending Cleveland Center
09:09PM 42.9133 -77.2833 308° West 193 222 4,600 -420 Descending Cleveland Center
09:10PM 42.9464 -77.3469 305° West 192 221 4,200 -300 Descending Cleveland Center
09:11PM 42.9772 -77.4047 306° West 190 219 4,100 -60 Descending Cleveland Center
09:12PM 42.9872 -77.4697 282° West 175 201 4,100 -180 Level Cleveland Center
09:13PM 42.9953 -77.5344 280° West 181 208 3,800 -300 Descending Cleveland Center
09:14PM 43.0056 -77.6050 281° West 177 204 3,600 -540 Descending Cleveland Center
09:15PM 43.0294 -77.6492 307° West 141 162 2,800 -900 Descending Cleveland Center
09:16PM 43.0717 -77.6672 343° North 147 169 1,800 -960 Descending Cleveland Center
09:17PM 43.1011 -77.6800 342° North 144 166 1,000 -900 Descending Cleveland Center